sensor_id;sensor_type;location;lat;lon;timestamp;P1;durP1;ratioP1;P2;durP2;ratioP2
58888;SDS011;44671;49.326;8.430;2023-07-31T00:00:24;3.40;;;2.13;;
58888;SDS011;44671;49.326;8.430;2023-07-31T00:02:49;3.35;;;2.22;;
58888;SDS011;44671;49.326;8.430;2023-07-31T00:05:15;3.55;;;2.00;;
58888;SDS011;44671;49.326;8.430;2023-07-31T00:07:40;3.45;;;1.90;;
58888;SDS011;44671;49.326;8.430;2023-07-31T00:10:06;3.40;;;2.20;;
58888;SDS011;44671;49.326;8.430;2023-07-31T00:12:31;4.05;;;2.30;;
58888;SDS011;44671;49.326;8.430;2023-07-31T00:14:57;3.45;;;2.67;;
58888;SDS011;44671;49.326;8.430;2023-07-31T00:17:23;2.67;;;2.00;;
58888;SDS011;44671;49.326;8.430;2023-07-31T00:19:48;2.15;;;1.88;;
58888;SDS011;44671;49.326;8.430;2023-07-31T00:22:15;5.43;;;1.73;;
58888;SDS011;44671;49.326;8.430;2023-07-31T00:24:41;2.92;;;1.88;;
58888;SDS011;44671;49.326;8.430;2023-07-31T00:27:06;3.63;;;2.28;;
58888;SDS011;44671;49.326;8.430;2023-07-31T00:29:31;2.35;;;1.67;;
58888;SDS011;44671;49.326;8.430;2023-07-31T00:31:57;4.57;;;2.13;;
58888;SDS011;44671;49.326;8.430;2023-07-31T00:34:22;3.63;;;1.90;;
58888;SDS011;44671;49.326;8.430;2023-07-31T00:36:47;3.25;;;2.00;;
58888;SDS011;44671;49.326;8.430;2023-07-31T00:39:13;2.60;;;2.20;;
58888;SDS011;44671;49.326;8.430;2023-07-31T00:41:38;3.03;;;1.90;;
58888;SDS011;44671;49.326;8.430;2023-07-31T00:44:04;3.63;;;2.22;;
58888;SDS011;44671;49.326;8.430;2023-07-31T00:46:29;3.42;;;2.50;;
58888;SDS011;44671;49.326;8.430;2023-07-31T00:48:54;3.97;;;1.70;;
58888;SDS011;44671;49.326;8.430;2023-07-31T00:51:20;4.18;;;1.95;;
58888;SDS011;44671;49.326;8.430;2023-07-31T00:53:45;2.20;;;2.00;;
58888;SDS011;44671;49.326;8.430;2023-07-31T00:56:12;4.90;;;1.98;;
58888;SDS011;44671;49.326;8.430;2023-07-31T00:58:37;2.72;;;1.90;;
58888;SDS011;44671;49.326;8.430;2023-07-31T01:01:02;3.78;;;2.15;;
58888;SDS011;44671;49.326;8.430;2023-07-31T01:03:28;3.13;;;1.90;;
58888;SDS011;44671;49.326;8.430;2023-07-31T01:11:04;2.13;;;1.92;;
58888;SDS011;44671;49.326;8.430;2023-07-31T01:13:34;1.95;;;1.75;;
58888;SDS011;44671;49.326;8.430;2023-07-31T01:16:00;3.20;;;1.90;;
58888;SDS011;44671;49.326;8.430;2023-07-31T01:18:25;1.88;;;1.60;;
58888;SDS011;44671;49.326;8.430;2023-07-31T01:20:54;4.38;;;2.17;;
58888;SDS011;44671;49.326;8.430;2023-07-31T01:26:31;4.20;;;1.85;;
58888;SDS011;44671;49.326;8.430;2023-07-31T01:31:23;4.22;;;1.98;;
58888;SDS011;44671;49.326;8.430;2023-07-31T01:36:14;1.70;;;1.60;;
58888;SDS011;44671;49.326;8.430;2023-07-31T01:38:40;3.28;;;1.90;;
58888;SDS011;44671;49.326;8.430;2023-07-31T01:41:05;3.28;;;1.90;;
58888;SDS011;44671;49.326;8.430;2023-07-31T01:43:30;7.40;;;2.17;;
58888;SDS011;44671;49.326;8.430;2023-07-31T01:45:56;4.00;;;2.03;;
58888;SDS011;44671;49.326;8.430;2023-07-31T01:48:21;3.65;;;2.10;;
58888;SDS011;44671;49.326;8.430;2023-07-31T01:50:46;3.70;;;1.98;;
58888;SDS011;44671;49.326;8.430;2023-07-31T01:53:12;2.20;;;2.00;;
58888;SDS011;44671;49.326;8.430;2023-07-31T01:55:38;3.20;;;1.77;;
58888;SDS011;44671;49.326;8.430;2023-07-31T01:58:03;1.92;;;1.67;;
58888;SDS011;44671;49.326;8.430;2023-07-31T02:00:29;2.00;;;1.80;;
58888;SDS011;44671;49.326;8.430;2023-07-31T02:02:54;3.53;;;1.63;;
58888;SDS011;44671;49.326;8.430;2023-07-31T02:05:19;2.72;;;1.85;;
58888;SDS011;44671;49.326;8.430;2023-07-31T02:07:45;3.90;;;2.10;;
58888;SDS011;44671;49.326;8.430;2023-07-31T02:10:10;5.05;;;2.58;;
58888;SDS011;44671;49.326;8.430;2023-07-31T02:12:35;2.85;;;1.77;;
58888;SDS011;44671;49.326;8.430;2023-07-31T02:15:01;2.65;;;1.85;;
58888;SDS011;44671;49.326;8.430;2023-07-31T02:17:26;2.45;;;1.90;;
58888;SDS011;44671;49.326;8.430;2023-07-31T02:19:52;2.40;;;2.20;;
58888;SDS011;44671;49.326;8.430;2023-07-31T02:22:17;3.85;;;2.08;;
58888;SDS011;44671;49.326;8.430;2023-07-31T02:24:43;4.30;;;2.00;;
58888;SDS011;44671;49.326;8.430;2023-07-31T02:27:08;2.85;;;2.08;;
58888;SDS011;44671;49.326;8.430;2023-07-31T02:29:34;3.80;;;1.98;;
58888;SDS011;44671;49.326;8.430;2023-07-31T02:31:59;2.40;;;1.77;;
58888;SDS011;44671;49.326;8.430;2023-07-31T02:34:24;2.55;;;1.90;;
58888;SDS011;44671;49.326;8.430;2023-07-31T02:36:50;2.15;;;1.75;;
58888;SDS011;44671;49.326;8.430;2023-07-31T02:39:15;2.35;;;2.00;;
58888;SDS011;44671;49.326;8.430;2023-07-31T02:41:40;3.72;;;2.35;;
58888;SDS011;44671;49.326;8.430;2023-07-31T02:44:05;2.63;;;1.85;;
58888;SDS011;44671;49.326;8.430;2023-07-31T02:46:31;3.22;;;1.75;;
58888;SDS011;44671;49.326;8.430;2023-07-31T02:48:56;3.20;;;1.95;;
58888;SDS011;44671;49.326;8.430;2023-07-31T02:51:22;3.03;;;2.08;;
58888;SDS011;44671;49.326;8.430;2023-07-31T02:53:47;3.22;;;2.17;;
58888;SDS011;44671;49.326;8.430;2023-07-31T02:56:13;3.00;;;2.13;;
58888;SDS011;44671;49.326;8.430;2023-07-31T02:58:38;3.58;;;2.00;;
58888;SDS011;44671;49.326;8.430;2023-07-31T03:01:03;2.90;;;2.38;;
58888;SDS011;44671;49.326;8.430;2023-07-31T03:03:29;2.90;;;2.00;;
58888;SDS011;44671;49.326;8.430;2023-07-31T03:05:54;2.17;;;1.80;;
58888;SDS011;44671;49.326;8.430;2023-07-31T03:08:20;3.03;;;1.70;;
58888;SDS011;44671;49.326;8.430;2023-07-31T03:10:45;1.98;;;1.80;;
58888;SDS011;44671;49.326;8.430;2023-07-31T03:13:10;3.08;;;2.38;;
58888;SDS011;44671;49.326;8.430;2023-07-31T03:15:36;4.53;;;1.70;;
58888;SDS011;44671;49.326;8.430;2023-07-31T03:18:01;3.35;;;2.00;;
58888;SDS011;44671;49.326;8.430;2023-07-31T03:20:26;2.90;;;2.28;;
58888;SDS011;44671;49.326;8.430;2023-07-31T03:22:52;3.78;;;1.60;;
58888;SDS011;44671;49.326;8.430;2023-07-31T03:25:17;3.85;;;1.77;;
58888;SDS011;44671;49.326;8.430;2023-07-31T03:27:42;2.42;;;2.00;;
58888;SDS011;44671;49.326;8.430;2023-07-31T03:30:08;2.85;;;1.90;;
58888;SDS011;44671;49.326;8.430;2023-07-31T03:32:33;2.20;;;1.80;;
58888;SDS011;44671;49.326;8.430;2023-07-31T03:34:59;3.25;;;1.70;;
58888;SDS011;44671;49.326;8.430;2023-07-31T03:37:25;2.33;;;2.13;;
58888;SDS011;44671;49.326;8.430;2023-07-31T03:39:50;2.53;;;1.60;;
58888;SDS011;44671;49.326;8.430;2023-07-31T03:42:15;3.63;;;1.60;;
58888;SDS011;44671;49.326;8.430;2023-07-31T03:44:41;2.00;;;1.80;;
58888;SDS011;44671;49.326;8.430;2023-07-31T03:47:06;3.95;;;2.05;;
58888;SDS011;44671;49.326;8.430;2023-07-31T03:49:31;2.20;;;2.00;;
58888;SDS011;44671;49.326;8.430;2023-07-31T03:51:57;2.28;;;2.08;;
58888;SDS011;44671;49.326;8.430;2023-07-31T03:54:22;1.80;;;1.70;;
58888;SDS011;44671;49.326;8.430;2023-07-31T03:56:47;3.25;;;1.80;;
58888;SDS011;44671;49.326;8.430;2023-07-31T03:59:13;2.15;;;1.80;;
58888;SDS011;44671;49.326;8.430;2023-07-31T04:01:38;2.13;;;1.70;;
58888;SDS011;44671;49.326;8.430;2023-07-31T04:04:03;2.85;;;1.85;;
58888;SDS011;44671;49.326;8.430;2023-07-31T04:06:29;3.17;;;2.05;;
58888;SDS011;44671;49.326;8.430;2023-07-31T04:08:54;3.70;;;1.85;;
58888;SDS011;44671;49.326;8.430;2023-07-31T04:11:19;2.90;;;2.00;;
58888;SDS011;44671;49.326;8.430;2023-07-31T04:13:45;2.75;;;1.90;;
58888;SDS011;44671;49.326;8.430;2023-07-31T04:16:10;1.98;;;1.60;;
58888;SDS011;44671;49.326;8.430;2023-07-31T04:18:37;2.22;;;2.03;;
58888;SDS011;44671;49.326;8.430;2023-07-31T04:21:02;2.05;;;1.85;;
58888;SDS011;44671;49.326;8.430;2023-07-31T04:23:28;2.90;;;2.15;;
58888;SDS011;44671;49.326;8.430;2023-07-31T04:25:53;2.83;;;1.65;;
58888;SDS011;44671;49.326;8.430;2023-07-31T04:28:18;2.95;;;1.90;;
58888;SDS011;44671;49.326;8.430;2023-07-31T04:30:44;3.47;;;1.80;;
58888;SDS011;44671;49.326;8.430;2023-07-31T04:33:09;3.50;;;1.90;;
58888;SDS011;44671;49.326;8.430;2023-07-31T04:35:34;2.47;;;2.05;;
58888;SDS011;44671;49.326;8.430;2023-07-31T04:38:00;3.63;;;2.03;;
58888;SDS011;44671;49.326;8.430;2023-07-31T04:40:25;2.53;;;1.80;;
58888;SDS011;44671;49.326;8.430;2023-07-31T04:42:51;2.47;;;2.15;;
58888;SDS011;44671;49.326;8.430;2023-07-31T04:45:16;2.47;;;1.50;;
58888;SDS011;44671;49.326;8.430;2023-07-31T04:47:41;2.35;;;2.13;;
58888;SDS011;44671;49.326;8.430;2023-07-31T04:50:07;2.20;;;1.75;;
58888;SDS011;44671;49.326;8.430;2023-07-31T04:52:32;2.00;;;1.83;;
58888;SDS011;44671;49.326;8.430;2023-07-31T04:54:58;2.00;;;1.77;;
58888;SDS011;44671;49.326;8.430;2023-07-31T04:57:23;3.08;;;1.80;;
58888;SDS011;44671;49.326;8.430;2023-07-31T04:59:48;1.92;;;1.70;;
58888;SDS011;44671;49.326;8.430;2023-07-31T05:02:14;2.45;;;1.92;;
58888;SDS011;44671;49.326;8.430;2023-07-31T05:04:40;3.20;;;1.83;;
58888;SDS011;44671;49.326;8.430;2023-07-31T05:07:05;3.15;;;2.33;;
58888;SDS011;44671;49.326;8.430;2023-07-31T05:09:31;2.47;;;1.50;;
58888;SDS011;44671;49.326;8.430;2023-07-31T05:11:56;3.15;;;1.73;;
58888;SDS011;44671;49.326;8.430;2023-07-31T05:14:21;4.35;;;2.25;;
58888;SDS011;44671;49.326;8.430;2023-07-31T05:16:47;3.90;;;2.60;;
58888;SDS011;44671;49.326;8.430;2023-07-31T05:19:12;3.22;;;2.00;;
58888;SDS011;44671;49.326;8.430;2023-07-31T05:21:37;4.43;;;1.98;;
58888;SDS011;44671;49.326;8.430;2023-07-31T05:24:03;3.05;;;1.50;;
58888;SDS011;44671;49.326;8.430;2023-07-31T05:26:28;4.65;;;1.90;;
58888;SDS011;44671;49.326;8.430;2023-07-31T05:28:54;5.60;;;2.58;;
58888;SDS011;44671;49.326;8.430;2023-07-31T05:31:19;3.30;;;2.38;;
58888;SDS011;44671;49.326;8.430;2023-07-31T05:33:45;2.67;;;2.22;;
58888;SDS011;44671;49.326;8.430;2023-07-31T05:36:11;3.53;;;2.40;;
58888;SDS011;44671;49.326;8.430;2023-07-31T05:38:36;3.95;;;2.30;;
58888;SDS011;44671;49.326;8.430;2023-07-31T05:41:01;6.80;;;2.28;;
58888;SDS011;44671;49.326;8.430;2023-07-31T05:43:27;7.53;;;2.42;;
58888;SDS011;44671;49.326;8.430;2023-07-31T05:45:52;5.18;;;2.03;;
58888;SDS011;44671;49.326;8.430;2023-07-31T05:48:18;5.43;;;2.35;;
58888;SDS011;44671;49.326;8.430;2023-07-31T05:50:43;4.85;;;2.05;;
58888;SDS011;44671;49.326;8.430;2023-07-31T05:53:09;3.75;;;1.80;;
58888;SDS011;44671;49.326;8.430;2023-07-31T05:55:35;3.63;;;2.22;;
58888;SDS011;44671;49.326;8.430;2023-07-31T05:58:01;2.63;;;1.88;;
58888;SDS011;44671;49.326;8.430;2023-07-31T06:00:26;3.88;;;2.15;;
58888;SDS011;44671;49.326;8.430;2023-07-31T06:02:52;2.20;;;1.85;;
58888;SDS011;44671;49.326;8.430;2023-07-31T06:05:18;3.28;;;1.80;;
58888;SDS011;44671;49.326;8.430;2023-07-31T06:07:43;1.70;;;1.60;;
58888;SDS011;44671;49.326;8.430;2023-07-31T06:10:08;2.40;;;1.77;;
58888;SDS011;44671;49.326;8.430;2023-07-31T06:12:34;2.70;;;1.83;;
58888;SDS011;44671;49.326;8.430;2023-07-31T06:15:00;3.50;;;1.70;;
58888;SDS011;44671;49.326;8.430;2023-07-31T06:17:27;3.03;;;1.90;;
58888;SDS011;44671;49.326;8.430;2023-07-31T06:19:52;5.57;;;2.17;;
58888;SDS011;44671;49.326;8.430;2023-07-31T06:22:18;3.15;;;1.85;;
58888;SDS011;44671;49.326;8.430;2023-07-31T06:24:43;1.65;;;1.52;;
58888;SDS011;44671;49.326;8.430;2023-07-31T06:27:09;3.47;;;2.10;;
58888;SDS011;44671;49.326;8.430;2023-07-31T06:29:35;3.00;;;1.90;;
58888;SDS011;44671;49.326;8.430;2023-07-31T06:32:00;3.45;;;2.03;;
58888;SDS011;44671;49.326;8.430;2023-07-31T06:34:26;2.03;;;1.65;;
58888;SDS011;44671;49.326;8.430;2023-07-31T06:36:51;2.40;;;1.75;;
58888;SDS011;44671;49.326;8.430;2023-07-31T06:39:16;3.95;;;2.20;;
58888;SDS011;44671;49.326;8.430;2023-07-31T06:41:42;4.47;;;1.80;;
58888;SDS011;44671;49.326;8.430;2023-07-31T06:44:09;2.28;;;1.83;;
58888;SDS011;44671;49.326;8.430;2023-07-31T06:46:34;4.47;;;1.98;;
58888;SDS011;44671;49.326;8.430;2023-07-31T06:49:00;5.50;;;2.28;;
58888;SDS011;44671;49.326;8.430;2023-07-31T06:51:25;2.70;;;1.70;;
58888;SDS011;44671;49.326;8.430;2023-07-31T06:53:50;2.30;;;2.10;;
58888;SDS011;44671;49.326;8.430;2023-07-31T06:56:16;3.67;;;2.38;;
58888;SDS011;44671;49.326;8.430;2023-07-31T06:58:41;3.42;;;1.85;;
58888;SDS011;44671;49.326;8.430;2023-07-31T07:01:06;2.15;;;1.95;;
58888;SDS011;44671;49.326;8.430;2023-07-31T07:03:32;3.30;;;1.65;;
58888;SDS011;44671;49.326;8.430;2023-07-31T07:05:57;4.93;;;2.55;;
58888;SDS011;44671;49.326;8.430;2023-07-31T07:08:23;1.77;;;1.60;;
58888;SDS011;44671;49.326;8.430;2023-07-31T07:10:49;3.08;;;2.00;;
58888;SDS011;44671;49.326;8.430;2023-07-31T07:13:14;2.63;;;1.73;;
58888;SDS011;44671;49.326;8.430;2023-07-31T07:15:40;8.07;;;2.45;;
58888;SDS011;44671;49.326;8.430;2023-07-31T07:18:05;3.42;;;1.83;;
58888;SDS011;44671;49.326;8.430;2023-07-31T07:20:31;4.10;;;1.80;;
58888;SDS011;44671;49.326;8.430;2023-07-31T07:22:57;3.10;;;1.70;;
58888;SDS011;44671;49.326;8.430;2023-07-31T07:25:22;2.75;;;2.20;;
58888;SDS011;44671;49.326;8.430;2023-07-31T07:27:47;2.70;;;1.90;;
58888;SDS011;44671;49.326;8.430;2023-07-31T07:30:13;2.35;;;1.80;;
58888;SDS011;44671;49.326;8.430;2023-07-31T07:32:39;2.70;;;2.05;;
58888;SDS011;44671;49.326;8.430;2023-07-31T07:35:05;3.17;;;1.80;;
58888;SDS011;44671;49.326;8.430;2023-07-31T07:37:31;4.57;;;1.88;;
58888;SDS011;44671;49.326;8.430;2023-07-31T07:39:56;4.28;;;2.05;;
58888;SDS011;44671;49.326;8.430;2023-07-31T07:42:22;1.98;;;1.75;;
58888;SDS011;44671;49.326;8.430;2023-07-31T07:44:47;2.53;;;1.75;;
58888;SDS011;44671;49.326;8.430;2023-07-31T07:47:13;2.92;;;1.95;;
58888;SDS011;44671;49.326;8.430;2023-07-31T07:49:38;4.70;;;1.90;;
58888;SDS011;44671;49.326;8.430;2023-07-31T07:52:04;2.63;;;1.70;;
58888;SDS011;44671;49.326;8.430;2023-07-31T07:54:30;6.22;;;2.10;;
58888;SDS011;44671;49.326;8.430;2023-07-31T07:56:55;2.58;;;1.90;;
58888;SDS011;44671;49.326;8.430;2023-07-31T07:59:21;5.55;;;2.13;;
58888;SDS011;44671;49.326;8.430;2023-07-31T08:01:46;2.50;;;2.17;;
58888;SDS011;44671;49.326;8.430;2023-07-31T08:04:11;2.70;;;1.80;;
58888;SDS011;44671;49.326;8.430;2023-07-31T08:06:37;2.15;;;1.70;;
58888;SDS011;44671;49.326;8.430;2023-07-31T08:09:02;3.10;;;1.83;;
58888;SDS011;44671;49.326;8.430;2023-07-31T08:11:34;3.78;;;1.90;;
58888;SDS011;44671;49.326;8.430;2023-07-31T08:13:59;1.67;;;1.58;;
58888;SDS011;44671;49.326;8.430;2023-07-31T08:16:25;2.33;;;1.85;;
58888;SDS011;44671;49.326;8.430;2023-07-31T08:18:50;2.05;;;1.60;;
58888;SDS011;44671;49.326;8.430;2023-07-31T08:21:16;2.15;;;1.77;;
58888;SDS011;44671;49.326;8.430;2023-07-31T08:23:41;4.30;;;2.33;;
58888;SDS011;44671;49.326;8.430;2023-07-31T08:26:06;3.25;;;1.90;;
58888;SDS011;44671;49.326;8.430;2023-07-31T08:28:32;1.88;;;1.52;;
58888;SDS011;44671;49.326;8.430;2023-07-31T08:30:57;3.03;;;2.05;;
58888;SDS011;44671;49.326;8.430;2023-07-31T08:33:23;2.40;;;1.83;;
58888;SDS011;44671;49.326;8.430;2023-07-31T08:35:48;1.60;;;1.50;;
58888;SDS011;44671;49.326;8.430;2023-07-31T08:38:14;2.15;;;1.80;;
58888;SDS011;44671;49.326;8.430;2023-07-31T08:40:39;2.33;;;1.55;;
58888;SDS011;44671;49.326;8.430;2023-07-31T08:43:05;3.60;;;2.13;;
58888;SDS011;44671;49.326;8.430;2023-07-31T08:45:30;2.05;;;1.48;;
58888;SDS011;44671;49.326;8.430;2023-07-31T08:47:57;2.85;;;2.08;;
58888;SDS011;44671;49.326;8.430;2023-07-31T08:50:23;2.85;;;1.70;;
58888;SDS011;44671;49.326;8.430;2023-07-31T08:52:49;2.25;;;1.73;;
58888;SDS011;44671;49.326;8.430;2023-07-31T08:55:16;1.70;;;1.60;;
58888;SDS011;44671;49.326;8.430;2023-07-31T08:57:41;2.83;;;2.05;;
58888;SDS011;44671;49.326;8.430;2023-07-31T09:00:07;2.72;;;1.50;;
58888;SDS011;44671;49.326;8.430;2023-07-31T09:05:35;3.05;;;1.88;;
58888;SDS011;44671;49.326;8.430;2023-07-31T09:08:02;4.35;;;1.92;;
58888;SDS011;44671;49.326;8.430;2023-07-31T09:10:28;3.33;;;1.90;;
58888;SDS011;44671;49.326;8.430;2023-07-31T09:12:53;3.22;;;2.15;;
58888;SDS011;44671;49.326;8.430;2023-07-31T09:15:19;2.05;;;1.85;;
58888;SDS011;44671;49.326;8.430;2023-07-31T09:17:46;2.35;;;2.15;;
58888;SDS011;44671;49.326;8.430;2023-07-31T09:20:18;2.00;;;1.80;;
58888;SDS011;44671;49.326;8.430;2023-07-31T09:22:44;2.88;;;1.80;;
58888;SDS011;44671;49.326;8.430;2023-07-31T09:25:16;2.63;;;2.03;;
58888;SDS011;44671;49.326;8.430;2023-07-31T09:27:47;1.65;;;1.55;;
58888;SDS011;44671;49.326;8.430;2023-07-31T09:30:13;2.72;;;1.95;;
58888;SDS011;44671;49.326;8.430;2023-07-31T09:32:39;1.73;;;1.40;;
58888;SDS011;44671;49.326;8.430;2023-07-31T09:35:21;2.90;;;1.67;;
58888;SDS011;44671;49.326;8.430;2023-07-31T09:37:53;2.55;;;1.70;;
58888;SDS011;44671;49.326;8.430;2023-07-31T09:40:32;2.38;;;1.83;;
58888;SDS011;44671;49.326;8.430;2023-07-31T09:43:00;2.72;;;1.67;;
58888;SDS011;44671;49.326;8.430;2023-07-31T09:45:27;1.98;;;1.70;;
58888;SDS011;44671;49.326;8.430;2023-07-31T09:47:53;1.70;;;1.60;;
58888;SDS011;44671;49.326;8.430;2023-07-31T09:50:20;2.58;;;1.65;;
58888;SDS011;44671;49.326;8.430;2023-07-31T09:52:46;2.50;;;1.90;;
58888;SDS011;44671;49.326;8.430;2023-07-31T09:55:12;4.85;;;1.67;;
58888;SDS011;44671;49.326;8.430;2023-07-31T09:57:41;2.53;;;1.88;;
58888;SDS011;44671;49.326;8.430;2023-07-31T10:00:13;1.65;;;1.55;;
58888;SDS011;44671;49.326;8.430;2023-07-31T10:02:40;2.05;;;1.70;;
58888;SDS011;44671;49.326;8.430;2023-07-31T10:05:07;2.75;;;1.60;;
58888;SDS011;44671;49.326;8.430;2023-07-31T10:07:43;1.98;;;1.63;;
58888;SDS011;44671;49.326;8.430;2023-07-31T10:10:12;1.90;;;1.80;;
58888;SDS011;44671;49.326;8.430;2023-07-31T10:12:40;2.75;;;1.70;;
58888;SDS011;44671;49.326;8.430;2023-07-31T10:15:06;1.90;;;1.70;;
58888;SDS011;44671;49.326;8.430;2023-07-31T10:17:32;3.10;;;1.75;;
58888;SDS011;44671;49.326;8.430;2023-07-31T10:19:58;2.33;;;2.10;;
58888;SDS011;44671;49.326;8.430;2023-07-31T10:22:28;2.15;;;1.95;;
58888;SDS011;44671;49.326;8.430;2023-07-31T10:24:54;2.33;;;1.58;;
58888;SDS011;44671;49.326;8.430;2023-07-31T10:27:20;5.15;;;1.90;;
58888;SDS011;44671;49.326;8.430;2023-07-31T10:29:45;4.10;;;1.70;;
58888;SDS011;44671;49.326;8.430;2023-07-31T10:32:12;1.95;;;1.40;;
58888;SDS011;44671;49.326;8.430;2023-07-31T10:34:39;2.05;;;1.65;;
58888;SDS011;44671;49.326;8.430;2023-07-31T10:37:24;1.70;;;1.60;;
58888;SDS011;44671;49.326;8.430;2023-07-31T10:39:57;2.10;;;1.90;;
58888;SDS011;44671;49.326;8.430;2023-07-31T10:42:35;2.10;;;1.50;;
58888;SDS011;44671;49.326;8.430;2023-07-31T10:45:06;1.77;;;1.55;;
58888;SDS011;44671;49.326;8.430;2023-07-31T10:50:11;3.63;;;1.80;;
58888;SDS011;44671;49.326;8.430;2023-07-31T10:52:47;1.80;;;1.70;;
58888;SDS011;44671;49.326;8.430;2023-07-31T10:57:58;3.42;;;2.20;;
58888;SDS011;44671;49.326;8.430;2023-07-31T11:00:31;3.22;;;1.80;;
58888;SDS011;44671;49.326;8.430;2023-07-31T11:02:57;2.45;;;1.67;;
58888;SDS011;44671;49.326;8.430;2023-07-31T11:10:48;1.88;;;1.70;;
58888;SDS011;44671;49.326;8.430;2023-07-31T11:13:16;2.00;;;1.80;;
58888;SDS011;44671;49.326;8.430;2023-07-31T11:15:41;2.65;;;1.80;;
58888;SDS011;44671;49.326;8.430;2023-07-31T11:18:07;2.47;;;1.90;;
58888;SDS011;44671;49.326;8.430;2023-07-31T11:20:33;3.10;;;1.70;;
58888;SDS011;44671;49.326;8.430;2023-07-31T11:23:03;3.13;;;1.80;;
58888;SDS011;44671;49.326;8.430;2023-07-31T11:25:31;2.72;;;1.70;;
58888;SDS011;44671;49.326;8.430;2023-07-31T11:28:11;1.70;;;1.60;;
58888;SDS011;44671;49.326;8.430;2023-07-31T11:30:37;4.53;;;1.80;;
58888;SDS011;44671;49.326;8.430;2023-07-31T11:33:04;2.22;;;1.55;;
58888;SDS011;44671;49.326;8.430;2023-07-31T11:35:34;2.08;;;1.73;;
58888;SDS011;44671;49.326;8.430;2023-07-31T11:38:11;1.95;;;1.60;;
58888;SDS011;44671;49.326;8.430;2023-07-31T11:40:58;2.22;;;1.50;;
58888;SDS011;44671;49.326;8.430;2023-07-31T11:43:25;1.83;;;1.60;;
58888;SDS011;44671;49.326;8.430;2023-07-31T11:45:52;2.65;;;1.70;;
58888;SDS011;44671;49.326;8.430;2023-07-31T11:48:31;1.73;;;1.63;;
58888;SDS011;44671;49.326;8.430;2023-07-31T11:51:02;1.92;;;1.70;;
58888;SDS011;44671;49.326;8.430;2023-07-31T11:53:29;2.08;;;1.63;;
58888;SDS011;44671;49.326;8.430;2023-07-31T11:55:57;4.87;;;1.80;;
58888;SDS011;44671;49.326;8.430;2023-07-31T11:58:23;3.55;;;1.85;;
58888;SDS011;44671;49.326;8.430;2023-07-31T12:00:48;1.65;;;1.55;;
58888;SDS011;44671;49.326;8.430;2023-07-31T12:03:14;3.33;;;1.92;;
58888;SDS011;44671;49.326;8.430;2023-07-31T12:05:40;2.10;;;1.70;;
58888;SDS011;44671;49.326;8.430;2023-07-31T12:08:11;1.73;;;1.63;;
58888;SDS011;44671;49.326;8.430;2023-07-31T12:10:37;2.38;;;1.50;;
58888;SDS011;44671;49.326;8.430;2023-07-31T12:15:43;2.05;;;1.70;;
58888;SDS011;44671;49.326;8.430;2023-07-31T12:18:13;3.92;;;1.90;;
58888;SDS011;44671;49.326;8.430;2023-07-31T12:20:42;1.85;;;1.45;;
58888;SDS011;44671;49.326;8.430;2023-07-31T12:23:22;2.58;;;1.70;;
58888;SDS011;44671;49.326;8.430;2023-07-31T12:26:09;4.93;;;1.77;;
58888;SDS011;44671;49.326;8.430;2023-07-31T12:28:49;2.42;;;1.60;;
58888;SDS011;44671;49.326;8.430;2023-07-31T12:31:21;2.95;;;1.95;;
58888;SDS011;44671;49.326;8.430;2023-07-31T12:33:48;1.92;;;1.42;;
58888;SDS011;44671;49.326;8.430;2023-07-31T12:36:15;1.75;;;1.65;;
58888;SDS011;44671;49.326;8.430;2023-07-31T12:38:45;2.00;;;1.80;;
58888;SDS011;44671;49.326;8.430;2023-07-31T12:41:11;2.15;;;1.90;;
58888;SDS011;44671;49.326;8.430;2023-07-31T12:43:37;1.77;;;1.67;;
58888;SDS011;44671;49.326;8.430;2023-07-31T12:46:04;2.60;;;1.50;;
58888;SDS011;44671;49.326;8.430;2023-07-31T12:48:29;2.15;;;2.00;;
58888;SDS011;44671;49.326;8.430;2023-07-31T12:50:57;2.35;;;1.92;;
58888;SDS011;44671;49.326;8.430;2023-07-31T12:53:22;2.08;;;1.88;;
58888;SDS011;44671;49.326;8.430;2023-07-31T12:55:47;2.53;;;1.67;;
58888;SDS011;44671;49.326;8.430;2023-07-31T12:58:13;2.60;;;1.52;;
58888;SDS011;44671;49.326;8.430;2023-07-31T13:00:38;3.15;;;1.60;;
58888;SDS011;44671;49.326;8.430;2023-07-31T13:03:03;1.83;;;1.67;;
58888;SDS011;44671;49.326;8.430;2023-07-31T13:05:29;2.08;;;1.83;;
58888;SDS011;44671;49.326;8.430;2023-07-31T13:07:54;4.20;;;2.25;;
58888;SDS011;44671;49.326;8.430;2023-07-31T13:10:20;7.03;;;2.05;;
58888;SDS011;44671;49.326;8.430;2023-07-31T13:12:47;2.38;;;1.80;;
58888;SDS011;44671;49.326;8.430;2023-07-31T13:15:13;5.53;;;2.00;;
58888;SDS011;44671;49.326;8.430;2023-07-31T13:17:39;2.55;;;2.28;;
58888;SDS011;44671;49.326;8.430;2023-07-31T13:20:04;4.57;;;1.98;;
58888;SDS011;44671;49.326;8.430;2023-07-31T13:22:30;7.60;;;2.53;;
58888;SDS011;44671;49.326;8.430;2023-07-31T13:24:56;6.80;;;2.55;;
58888;SDS011;44671;49.326;8.430;2023-07-31T13:27:21;14.85;;;2.63;;
58888;SDS011;44671;49.326;8.430;2023-07-31T13:29:47;5.78;;;1.95;;
58888;SDS011;44671;49.326;8.430;2023-07-31T13:32:13;7.28;;;1.90;;
58888;SDS011;44671;49.326;8.430;2023-07-31T13:34:39;7.65;;;2.20;;
58888;SDS011;44671;49.326;8.430;2023-07-31T13:37:04;8.07;;;2.35;;
58888;SDS011;44671;49.326;8.430;2023-07-31T13:39:31;15.00;;;2.17;;
58888;SDS011;44671;49.326;8.430;2023-07-31T13:41:57;13.02;;;2.38;;
58888;SDS011;44671;49.326;8.430;2023-07-31T13:44:22;10.73;;;2.40;;
58888;SDS011;44671;49.326;8.430;2023-07-31T13:46:47;10.23;;;2.50;;
58888;SDS011;44671;49.326;8.430;2023-07-31T13:49:13;9.07;;;2.25;;
58888;SDS011;44671;49.326;8.430;2023-07-31T13:51:38;6.43;;;2.00;;
58888;SDS011;44671;49.326;8.430;2023-07-31T13:54:04;6.22;;;2.13;;
58888;SDS011;44671;49.326;8.430;2023-07-31T13:56:31;4.07;;;1.80;;
58888;SDS011;44671;49.326;8.430;2023-07-31T13:58:56;4.32;;;1.88;;
58888;SDS011;44671;49.326;8.430;2023-07-31T14:01:22;7.45;;;2.20;;
58888;SDS011;44671;49.326;8.430;2023-07-31T14:03:47;5.63;;;2.50;;
58888;SDS011;44671;49.326;8.430;2023-07-31T14:06:12;5.18;;;2.42;;
58888;SDS011;44671;49.326;8.430;2023-07-31T14:08:38;6.75;;;2.13;;
58888;SDS011;44671;49.326;8.430;2023-07-31T14:11:03;8.63;;;1.83;;
58888;SDS011;44671;49.326;8.430;2023-07-31T14:13:28;4.45;;;1.80;;
58888;SDS011;44671;49.326;8.430;2023-07-31T14:15:54;5.78;;;1.95;;
58888;SDS011;44671;49.326;8.430;2023-07-31T14:18:19;7.97;;;2.25;;
58888;SDS011;44671;49.326;8.430;2023-07-31T14:20:44;4.28;;;2.22;;
58888;SDS011;44671;49.326;8.430;2023-07-31T14:23:10;6.03;;;1.90;;
58888;SDS011;44671;49.326;8.430;2023-07-31T14:25:35;6.10;;;2.03;;
58888;SDS011;44671;49.326;8.430;2023-07-31T14:28:01;4.15;;;1.70;;
58888;SDS011;44671;49.326;8.430;2023-07-31T14:30:26;5.45;;;2.20;;
58888;SDS011;44671;49.326;8.430;2023-07-31T14:32:51;5.28;;;1.92;;
58888;SDS011;44671;49.326;8.430;2023-07-31T14:35:17;3.85;;;2.20;;
58888;SDS011;44671;49.326;8.430;2023-07-31T14:37:43;5.65;;;2.10;;
58888;SDS011;44671;49.326;8.430;2023-07-31T14:40:10;5.38;;;2.05;;
58888;SDS011;44671;49.326;8.430;2023-07-31T14:42:36;4.68;;;1.95;;
58888;SDS011;44671;49.326;8.430;2023-07-31T14:45:06;6.45;;;2.15;;
58888;SDS011;44671;49.326;8.430;2023-07-31T14:49:57;5.53;;;1.92;;
58888;SDS011;44671;49.326;8.430;2023-07-31T14:52:23;4.00;;;1.80;;
58888;SDS011;44671;49.326;8.430;2023-07-31T14:54:48;3.30;;;1.88;;
58888;SDS011;44671;49.326;8.430;2023-07-31T14:57:14;3.03;;;1.67;;
58888;SDS011;44671;49.326;8.430;2023-07-31T14:59:39;5.57;;;1.90;;
58888;SDS011;44671;49.326;8.430;2023-07-31T15:02:04;5.38;;;2.53;;
58888;SDS011;44671;49.326;8.430;2023-07-31T15:04:30;5.97;;;1.92;;
58888;SDS011;44671;49.326;8.430;2023-07-31T15:06:56;2.13;;;1.95;;
58888;SDS011;44671;49.326;8.430;2023-07-31T15:09:21;3.35;;;1.50;;
58888;SDS011;44671;49.326;8.430;2023-07-31T15:11:47;2.90;;;2.00;;
58888;SDS011;44671;49.326;8.430;2023-07-31T15:14:12;2.65;;;1.85;;